ADDS METAR Data INFO
IDs: Format: Raw Decoded Include TAF

Data at: 2216 UTC 24 Jun 2018

KMCW 242153Z AUTO 14008G18KT 10SM FEW036 SCT095 26/19 A2996 RMK AO2 LTG DSNT NW SLP133 T02610194
KMCW 242053Z AUTO 11010KT 10SM CLR 27/20 A2994 RMK AO2 SLP126 T02720200 58003
KMCW 241953Z AUTO 12013KT 10SM SCT036 27/21 A2995 RMK AO2 SLP129 T02720206
KMCW 241853Z AUTO 14013KT 10SM SCT031 27/21 A2994 RMK AO2 SLP128 T02670206
KMCW 241753Z AUTO 13012KT 10SM FEW030 26/20 A2995 RMK AO2 SLP130 60009 T02610200 10261 20178 50007
KMCW 241653Z AUTO 12009KT 10SM FEW075 SCT100 24/20 A2996 RMK AO2 RAB01E40 SLP134 P0000 T02390200
KMCW 241553Z AUTO 13010KT 10SM BKN100 22/20 A2994 RMK AO2 RAE34 SLP128 P0003 T02170200
KMCW 241453Z AUTO 14005KT 5SM -RA BR FEW048 BKN090 OVC110 21/19 A2993 RMK AO2 RAB1354 SLP124 P0006 60006 T02060194 50013
KMCW 241353Z AUTO 18006KT 10SM FEW065 SCT075 BKN100 22/19 A2995 RMK AO2 SLP129 T02220189
KMCW 241253Z AUTO 13004KT 10SM BKN095 19/18 A2992 RMK AO2 LTG DSNT W SLP120 T01940183
KMCW 241153Z AUTO 14004KT 8SM CLR 18/17 A2989 RMK AO2 SLP109 T01780172 10183 20150 53008
KMCW 241053Z AUTO 07003KT 5SM BR CLR 16/16 A2985 RMK AO2 SLP098 T01560156
KMCW 240953Z AUTO 18003KT 7SM CLR 15/15 A2986 RMK AO2 SLP100 T01500150
KMCW 240853Z AUTO 00000KT 8SM CLR 16/16 A2986 RMK AO2 SLP101 T01610161 51006
KMCW 240753Z AUTO 00000KT 10SM CLR 17/17 A2986 RMK AO2 SLP100 T01720167
KMCW 240653Z AUTO 14003KT 10SM CLR 17/17 A2985 RMK AO2 SLP097 T01720172
KMCW 240553Z AUTO 17003KT 10SM CLR 18/17 A2984 RMK AO2 SLP094 T01780172 10250 20178 402610128 50006
KMCW 240453Z AUTO 16004KT 10SM CLR 18/18 A2985 RMK AO2 SLP097 T01830178
KMCW 240353Z AUTO 18004KT 10SM FEW120 19/18 A2985 RMK AO2 SLP095 T01940183
KMCW 240253Z AUTO 15003KT 10SM CLR 20/18 A2983 RMK AO2 SLP089 T02000183 53012
KMCW 240153Z AUTO 18005KT 10SM CLR 21/18 A2980 RMK AO2 SLP080 T02110178
KMCW 240053Z AUTO 18004KT 10SM CLR 23/18 A2980 RMK AO2 SLP078 T02330178
KMCW 232353Z AUTO 20007KT 10SM CLR 25/16 A2979 RMK AO2 SLP076 T02500161 10261 20244 55003
KMCW 232253Z AUTO 18005KT 10SM FEW044 26/17 A2979 RMK AO2 SLP076 T02560167
KMCW 232153Z AUTO 17005KT 10SM FEW046 26/16 A2979 RMK AO2 SLP079 T02610161
KMCW 232053Z AUTO 00000KT 10SM CLR 26/16 A2980 RMK AO2 SLP080 T02560156 56005
KMCW 231953Z AUTO 20004KT 10SM CLR 26/16 A2980 RMK AO2 SLP080 T02610161
KMCW 231853Z AUTO VRB03KT 10SM CLR 26/16 A2981 RMK AO2 SLP083 T02560156
KMCW 231753Z AUTO VRB03KT 10SM FEW041 25/16 A2981 RMK AO2 SLP085 T02500156 10256 20167 58001
KMCW 231653Z AUTO 18003KT 10SM CLR 24/17 A2982 RMK AO2 SLP087 T02390167
KMCW 231553Z AUTO VRB04KT 10SM CLR 23/16 A2982 RMK AO2 SLP089 T02330161
KMCW 231453Z AUTO 21004KT 10SM CLR 22/17 A2982 RMK AO2 SLP086 T02220167 50004
KMCW 231353Z AUTO 24004KT 10SM CLR 22/17 A2982 RMK AO2 SLP087 T02170167
KMCW 231253Z AUTO 00000KT 9SM CLR 19/18 A2981 RMK AO2 SLP084 T01940183
KMCW 231153Z AUTO 00000KT 4SM BR CLR 17/17 A2981 RMK AO2 SLP082 T01670167 10167 20128 51000
KMCW 231151Z AUTO 00000KT 4SM BR CLR 17/16 A2981 RMK AO2
KMCW 231121Z AUTO 00000KT 2SM BR FEW002 14/14 A2981 RMK AO2 T01440144
KMCW 231119Z AUTO 00000KT 1SM BR VV002 14/14 A2981 RMK AO2 T01440144
KMCW 231100Z AUTO 00000KT 1/4SM FG VV002 13/13 A2981 RMK AO2 T01330133
KMCW 231053Z AUTO 00000KT 1/2SM FG VV002 14/14 A2981 RMK AO2 SLP084 T01440144
KMCW 231049Z AUTO 00000KT 1 1/4SM BR CLR 13/13 A2981 RMK AO2 VIS 1/2V4
KMCW 231039Z AUTO 00000KT 3/4SM BR VV002 14/14 A2981 RMK AO2 T01390139
KMCW 231029Z AUTO 00000KT 2 1/2SM BR CLR 14/14 A2981 RMK AO2 T01390139
KMCW 231023Z AUTO 00000KT 1/2SM FG CLR 14/14 A2980 RMK AO2 T01390139